Cubuk, Turkey
Current Conditions -  °F | °C
As of 3:20 AM on Wednesday 22 Oct 2014 (Local Time) from LTAC Reporting Station
Clear Clear  
Wind Chill: 36°   Ceiling: Unl
Heat Index: 36°   Visibility: 6mi
Dew Point: 28°   Wind: 1mph
Humidity: 75%   Direction: NA
Pressure: 30"   Gusts: NA
Location:  40.98°N, 32.08°E
Report Text: LTAC 220020Z VRB01KT CAVOK 02/M02 Q1016 NOSIG
Loading
Personal Weather Stations






























Interactive Weather Map
Tropical Storm Tracking
New forecast layout! Learn more

10-Day Weather Forecast

Advertisements
Track Severe Weather on mobile